Time;durP1;ratioP1;P1;durP2;ratioP2;P2;SDS_P1;SDS_P2;PMS_P1;PMS_P2;Temp;Humidity;BMP_temperature;BMP_pressure;BME280_temperature;BME280_humidity;BME280_pressure;Samples;Min_cycle;Max_cycle;Signal;HPM_P1;HPM_P2
2022/04/21 00:02:37;;;;;;;26.20;15.00;;;;;;;;;;5073945;28;20404;-69
2022/04/21 00:05:42;;;;;;;34.78;15.25;;;;;;;;;;5074009;28;20052;-69
2022/04/21 00:08:46;;;;;;;27.67;14.45;;;;;;;;;;5073739;28;20440;-69
2022/04/21 00:11:52;;;;;;;22.80;13.77;;;;;;;;;;5073915;28;20044;-69
2022/04/21 00:14:56;;;;;;;22.02;13.80;;;;;;;;;;5073454;28;20043;-69
2022/04/21 00:18:01;;;;;;;22.35;13.20;;;;;;;;;;5072731;28;20051;-69
2022/04/21 00:21:06;;;;;;;30.40;16.48;;;;;;;;;;5073791;28;20503;-69
2022/04/21 00:24:10;;;;;;;34.17;16.58;;;;;;;;;;5074029;28;20456;-70
2022/04/21 00:27:14;;;;;;;31.02;15.95;;;;;;;;;;5073813;28;20039;-70
2022/04/21 00:30:18;;;;;;;30.13;16.33;;;;;;;;;;5072664;28;20400;-70
2022/04/21 00:33:23;;;;;;;31.88;16.38;;;;;;;;;;5073330;28;20507;-69
2022/04/21 00:36:27;;;;;;;25.52;15.65;;;;;;;;;;5073367;28;20055;-69
2022/04/21 00:39:32;;;;;;;25.55;16.42;;;;;;;;;;5073117;28;20048;-69
2022/04/21 00:42:36;;;;;;;27.90;15.68;;;;;;;;;;5073165;28;20058;-69
2022/04/21 00:45:40;;;;;;;23.13;14.63;;;;;;;;;;5073250;28;20047;-70
2022/04/21 00:48:46;;;;;;;25.05;14.07;;;;;;;;;;5073173;28;20039;-70
2022/04/21 00:51:51;;;;;;;24.80;13.70;;;;;;;;;;5073374;28;20048;-70
2022/04/21 00:54:55;;;;;;;19.88;12.95;;;;;;;;;;5072815;28;20046;-69
2022/04/21 00:58:01;;;;;;;28.02;12.88;;;;;;;;;;5073016;28;20400;-69
2022/04/21 01:02:46;;;;;;;21.80;12.40;;;;;;;;;;5072093;28;20036;-69
2022/04/21 01:04:30;;;;;;;29.33;14.73;;;;;;;;;;5072710;28;20051;-69
2022/04/21 01:07:34;;;;;;;27.35;14.13;;;;;;;;;;5072430;28;20052;-69
2022/04/21 01:10:41;;;;;;;25.25;13.70;;;;;;;;;;5072934;28;20388;-69
2022/04/21 01:13:47;;;;;;;29.00;13.35;;;;;;;;;;5072922;28;20415;-69
2022/04/21 01:16:52;;;;;;;25.30;14.13;;;;;;;;;;5072410;28;20055;-69
2022/04/21 01:19:57;;;;;;;26.23;14.43;;;;;;;;;;5072786;28;20634;-69
2022/04/21 01:23:01;;;;;;;21.67;13.57;;;;;;;;;;5072511;28;20052;-69
2022/04/21 01:26:06;;;;;;;27.05;13.85;;;;;;;;;;5072197;28;20047;-69
2022/04/21 01:29:10;;;;;;;23.30;13.65;;;;;;;;;;5072659;28;20051;-70
2022/04/21 01:32:14;;;;;;;24.48;14.80;;;;;;;;;;5072567;28;20040;-69
2022/04/21 01:35:19;;;;;;;34.00;14.57;;;;;;;;;;5071918;28;20043;-69
2022/04/21 01:41:45;;;;;;;24.73;13.82;;;;;;;;;;5071963;28;20064;-69
2022/04/21 01:44:50;;;;;;;24.02;13.60;;;;;;;;;;5072327;28;20051;-68
2022/04/21 01:47:56;;;;;;;23.85;14.07;;;;;;;;;;5071932;28;20036;-68
2022/04/21 01:51:00;;;;;;;21.80;13.88;;;;;;;;;;5070975;28;20052;-70
2022/04/21 01:54:04;;;;;;;26.25;13.43;;;;;;;;;;5071207;28;20035;-68
2022/04/21 01:57:08;;;;;;;22.25;14.20;;;;;;;;;;5071113;28;20059;-69
2022/04/21 02:00:13;;;;;;;23.73;14.88;;;;;;;;;;5072094;28;20055;-69
2022/04/21 02:03:17;;;;;;;27.67;15.20;;;;;;;;;;5072400;28;20372;-68
2022/04/21 02:06:21;;;;;;;22.20;13.88;;;;;;;;;;5071669;28;20067;-69
2022/04/21 02:09:26;;;;;;;25.58;14.02;;;;;;;;;;5071427;28;20047;-69
2022/04/21 02:12:30;;;;;;;24.88;13.80;;;;;;;;;;5071596;28;20036;-69
2022/04/21 02:15:34;;;;;;;22.88;14.05;;;;;;;;;;5070676;28;20059;-69
2022/04/21 02:18:39;;;;;;;22.48;15.48;;;;;;;;;;5071315;28;20065;-69
2022/04/21 02:21:43;;;;;;;22.33;15.25;;;;;;;;;;5071518;28;20047;-68
2022/04/21 02:24:48;;;;;;;26.98;14.48;;;;;;;;;;5071276;28;20048;-69
2022/04/21 02:27:52;;;;;;;25.90;14.35;;;;;;;;;;5071391;28;20043;-70
2022/04/21 02:30:56;;;;;;;27.65;14.68;;;;;;;;;;5071634;28;20036;-69
2022/04/21 02:34:01;;;;;;;28.27;14.95;;;;;;;;;;5071259;28;20047;-68
2022/04/21 02:37:05;;;;;;;27.42;14.52;;;;;;;;;;5071011;28;20059;-69
2022/04/21 02:40:10;;;;;;;24.17;14.57;;;;;;;;;;5071166;28;20389;-69
2022/04/21 02:43:14;;;;;;;25.42;15.43;;;;;;;;;;5070887;28;20039;-69
2022/04/21 02:46:19;;;;;;;21.48;15.27;;;;;;;;;;5070399;28;20047;-69
2022/04/21 02:49:24;;;;;;;29.15;15.40;;;;;;;;;;5071794;28;20106;-69
2022/04/21 02:52:28;;;;;;;24.98;15.00;;;;;;;;;;5070893;28;20389;-69
2022/04/21 02:58:55;;;;;;;29.77;15.82;;;;;;;;;;5069940;28;20067;-69
2022/04/21 03:01:59;;;;;;;25.20;14.52;;;;;;;;;;5070698;28;20198;-69
2022/04/21 03:05:04;;;;;;;26.83;14.45;;;;;;;;;;5071023;28;20039;-69
2022/04/21 03:08:08;;;;;;;24.88;13.55;;;;;;;;;;5070532;28;20064;-69
2022/04/21 03:11:13;;;;;;;30.00;13.68;;;;;;;;;;5070944;28;20047;-69
2022/04/21 03:14:19;;;;;;;20.73;13.70;;;;;;;;;;5070696;28;20040;-69
2022/04/21 03:17:23;;;;;;;24.67;13.73;;;;;;;;;;5070041;28;20055;-69
2022/04/21 03:24:20;;;;;;;25.48;14.15;;;;;;;;;;5049035;28;20044;-69
2022/04/21 03:27:26;;;;;;;27.92;14.25;;;;;;;;;;5073313;28;20044;-70
2022/04/21 03:30:32;;;;;;;26.40;14.05;;;;;;;;;;5074814;28;20055;-69
2022/04/21 03:33:37;;;;;;;24.27;13.68;;;;;;;;;;5074509;28;20048;-70
2022/04/21 03:36:48;;;;;;;27.15;13.40;;;;;;;;;;5074532;28;20412;-69
2022/04/21 03:39:53;;;;;;;29.95;15.63;;;;;;;;;;5074874;28;20043;-70
2022/04/21 03:42:57;;;;;;;25.27;14.88;;;;;;;;;;5074736;28;20397;-69
2022/04/21 03:46:01;;;;;;;31.77;15.70;;;;;;;;;;5073456;28;20036;-69
2022/04/21 03:49:06;;;;;;;28.60;16.10;;;;;;;;;;5074785;28;20040;-70
2022/04/21 03:52:10;;;;;;;29.80;15.43;;;;;;;;;;5074525;28;20035;-69
2022/04/21 03:55:14;;;;;;;27.48;13.98;;;;;;;;;;5074102;28;20043;-70
2022/04/21 03:58:19;;;;;;;27.85;13.93;;;;;;;;;;5074089;28;20118;-70
2022/04/21 04:01:23;;;;;;;26.63;14.93;;;;;;;;;;5074294;28;20047;-70
2022/04/21 04:04:27;;;;;;;28.67;14.35;;;;;;;;;;5074006;28;20048;-69
2022/04/21 04:10:54;;;;;;;25.90;14.35;;;;;;;;;;5073663;28;20063;-70
2022/04/21 04:13:58;;;;;;;29.92;14.02;;;;;;;;;;5073505;28;20048;-69
2022/04/21 04:17:03;;;;;;;35.42;15.07;;;;;;;;;;5073542;28;20063;-68
2022/04/21 04:20:07;;;;;;;34.58;14.50;;;;;;;;;;5073697;28;20035;-69
2022/04/21 04:23:11;;;;;;;49.55;14.43;;;;;;;;;;5072145;28;20131;-70
2022/04/21 04:26:15;;;;;;;32.28;12.68;;;;;;;;;;5073536;28;20047;-69
2022/04/21 04:29:22;;;;;;;39.85;19.27;;;;;;;;;;5073680;28;20118;-69
2022/04/21 04:32:26;;;;;;;29.90;13.50;;;;;;;;;;5073547;28;20059;-69
2022/04/21 04:35:31;;;;;;;28.40;12.15;;;;;;;;;;5073446;28;20436;-69
2022/04/21 04:38:35;;;;;;;38.97;12.23;;;;;;;;;;5071436;28;20404;-69
2022/04/21 04:48:26;;;;;;;24.92;10.75;;;;;;;;;;5073211;28;20047;-69
2022/04/21 04:51:31;;;;;;;26.90;10.30;;;;;;;;;;5073314;28;20499;-69
2022/04/21 04:54:35;;;;;;;18.58;10.40;;;;;;;;;;5072947;28;20044;-69
2022/04/21 04:57:40;;;;;;;24.80;10.98;;;;;;;;;;5073219;28;20052;-70
2022/04/21 05:00:47;;;;;;;23.80;11.65;;;;;;;;;;5073191;28;20039;-69
2022/04/21 05:03:52;;;;;;;27.58;11.40;;;;;;;;;;5072793;28;20051;-69
2022/04/21 05:06:57;;;;;;;22.55;11.10;;;;;;;;;;5072781;28;20048;-70
2022/04/21 05:10:03;;;;;;;32.72;11.90;;;;;;;;;;5072752;28;20051;-69
2022/04/21 05:13:07;;;;;;;25.00;11.25;;;;;;;;;;5072232;28;20040;-69
2022/04/21 05:16:13;;;;;;;29.02;9.65;;;;;;;;;;5071674;28;20055;-70
2022/04/21 05:19:19;;;;;;;23.38;10.10;;;;;;;;;;5072897;28;20091;-69
2022/04/21 05:22:27;;;;;;;24.48;9.45;;;;;;;;;;5072123;28;20056;-70
2022/04/21 05:25:33;;;;;;;29.30;10.93;;;;;;;;;;5071099;28;20044;-69
2022/04/21 05:28:37;;;;;;;32.47;10.70;;;;;;;;;;5072166;28;20041;-69
2022/04/21 05:31:41;;;;;;;28.48;10.48;;;;;;;;;;5072520;28;20143;-71
2022/04/21 05:34:45;;;;;;;24.52;10.43;;;;;;;;;;5072321;28;20048;-71
2022/04/21 05:37:50;;;;;;;21.95;9.35;;;;;;;;;;5072013;28;20047;-70
2022/04/21 05:40:55;;;;;;;18.17;9.60;;;;;;;;;;5070894;28;20044;-70
2022/04/21 05:44:00;;;;;;;26.88;11.07;;;;;;;;;;5071786;28;20043;-70
2022/04/21 05:47:10;;;;;;;32.05;11.00;;;;;;;;;;5071991;28;20499;-71
2022/04/21 05:50:15;;;;;;;36.25;10.80;;;;;;;;;;5070722;28;20055;-72
2022/04/21 05:53:23;;;;;;;37.83;10.10;;;;;;;;;;5071988;28;20205;-71
2022/04/21 05:56:27;;;;;;;35.53;11.63;;;;;;;;;;5071784;28;20056;-70
2022/04/21 05:59:32;;;;;;;28.08;10.73;;;;;;;;;;5071707;28;20056;-70
2022/04/21 06:02:37;;;;;;;34.33;10.65;;;;;;;;;;5071647;28;20048;-71
2022/04/21 06:05:41;;;;;;;43.15;11.05;;;;;;;;;;5071581;28;20051;-72
2022/04/21 06:08:46;;;;;;;35.85;10.35;;;;;;;;;;5071180;28;20043;-71
2022/04/21 06:11:50;;;;;;;34.40;9.32;;;;;;;;;;5071458;28;20052;-69
2022/04/21 06:14:54;;;;;;;35.75;10.52;;;;;;;;;;5071230;28;20048;-71
2022/04/21 06:17:59;;;;;;;26.92;10.30;;;;;;;;;;5070524;28;20051;-69
2022/04/21 06:21:04;;;;;;;28.15;9.77;;;;;;;;;;5071341;28;20036;-68
2022/04/21 06:24:09;;;;;;;25.35;8.90;;;;;;;;;;5071342;28;20043;-70
2022/04/21 06:27:14;;;;;;;25.30;8.85;;;;;;;;;;5071168;28;20047;-70
2022/04/21 06:30:19;;;;;;;23.48;10.35;;;;;;;;;;5070978;28;20039;-72
2022/04/21 06:33:23;;;;;;;22.05;9.10;;;;;;;;;;5070940;28;20039;-70
2022/04/21 06:36:27;;;;;;;21.67;7.50;;;;;;;;;;5071060;28;20059;-74
2022/04/21 06:39:32;;;;;;;26.25;8.38;;;;;;;;;;5071258;28;20048;-72
2022/04/21 06:42:38;;;;;;;23.92;9.68;;;;;;;;;;5070067;28;20048;-74
2022/04/21 06:49:05;;;;;;;23.02;8.88;;;;;;;;;;5070851;28;20420;-68
2022/04/21 06:52:09;;;;;;;28.05;9.32;;;;;;;;;;5070671;28;20047;-72
2022/04/21 06:55:13;;;;;;;32.70;8.77;;;;;;;;;;5070550;28;20047;-75
2022/04/21 06:58:18;;;;;;;29.60;7.97;;;;;;;;;;5070092;28;20380;-73
2022/04/21 07:01:23;;;;;;;24.63;7.05;;;;;;;;;;5070612;28;20047;-73
2022/04/21 07:04:28;;;;;;;19.27;6.40;;;;;;;;;;5070815;28;20043;-72
2022/04/21 07:07:33;;;;;;;21.83;6.85;;;;;;;;;;5070115;28;20055;-73
2022/04/21 07:10:36;;;;;;;23.73;6.68;;;;;;;;;;5070794;28;20051;-73
2022/04/21 07:13:41;;;;;;;25.35;6.78;;;;;;;;;;5070713;28;20057;-76
2022/04/21 07:16:45;;;;;;;23.35;7.80;;;;;;;;;;5070569;28;20074;-72
2022/04/21 07:19:49;;;;;;;31.00;9.55;;;;;;;;;;5070969;28;20055;-72
2022/04/21 07:22:53;;;;;;;22.63;8.95;;;;;;;;;;5070486;28;20397;-72
2022/04/21 07:25:58;;;;;;;25.33;8.23;;;;;;;;;;5069872;28;20102;-72
2022/04/21 07:29:02;;;;;;;35.38;10.70;;;;;;;;;;5070556;28;20039;-74
2022/04/21 07:32:07;;;;;;;25.33;8.98;;;;;;;;;;5069748;28;20043;-74
2022/04/21 07:35:12;;;;;;;22.45;9.45;;;;;;;;;;5070212;28;20056;-71
2022/04/21 07:38:16;;;;;;;25.30;9.23;;;;;;;;;;5070640;28;20055;-73
2022/04/21 07:41:20;;;;;;;30.35;9.30;;;;;;;;;;5069464;28;20055;-72
2022/04/21 07:44:26;;;;;;;21.48;8.57;;;;;;;;;;5069482;28;20048;-73
2022/04/21 07:47:31;;;;;;;27.10;8.90;;;;;;;;;;5070356;28;20064;-72
2022/04/21 07:50:35;;;;;;;33.78;10.90;;;;;;;;;;5069690;28;20389;-73
2022/04/21 07:53:40;;;;;;;29.73;12.20;;;;;;;;;;5070094;28;20055;-74
2022/04/21 07:56:44;;;;;;;33.15;13.15;;;;;;;;;;5069674;28;20400;-71
2022/04/21 07:59:49;;;;;;;38.83;12.18;;;;;;;;;;5070650;28;20043;-73
2022/04/21 08:02:53;;;;;;;36.08;9.98;;;;;;;;;;5069982;28;20055;-72
2022/04/21 08:05:58;;;;;;;28.92;9.35;;;;;;;;;;5070033;28;20499;-73
2022/04/21 08:09:03;;;;;;;32.38;7.63;;;;;;;;;;5070236;28;20051;-74
2022/04/21 08:12:07;;;;;;;31.55;7.30;;;;;;;;;;5069319;28;20059;-73
2022/04/21 08:15:13;;;;;;;19.10;6.72;;;;;;;;;;5073769;28;20044;-78
2022/04/21 08:18:18;;;;;;;23.13;6.25;;;;;;;;;;5073941;28;20048;-73
2022/04/21 08:21:24;;;;;;;21.70;6.60;;;;;;;;;;5072588;28;20039;-75
2022/04/21 08:34:37;;;;;;;29.98;7.72;;;;;;;;;;5074308;28;20389;-78
2022/04/21 08:37:42;;;;;;;20.20;7.18;;;;;;;;;;5071621;28;20055;-74
2022/04/21 08:40:54;;;;;;;26.05;8.45;;;;;;;;;;5073060;28;20044;-70
2022/04/21 08:44:00;;;;;;;16.63;6.68;;;;;;;;;;5072922;28;20071;-71
2022/04/21 08:47:06;;;;;;;18.80;6.72;;;;;;;;;;5072915;28;20044;-74
2022/04/21 08:50:12;;;;;;;23.27;7.35;;;;;;;;;;5072970;28;20051;-72
2022/04/21 08:53:25;;;;;;;19.02;6.80;;;;;;;;;;5072852;28;20055;-72
2022/04/21 08:56:30;;;;;;;21.20;7.30;;;;;;;;;;5073106;28;20067;-76
2022/04/21 08:59:34;;;;;;;25.90;7.22;;;;;;;;;;5072032;28;20043;-78
2022/04/21 09:02:40;;;;;;;19.02;5.95;;;;;;;;;;5073348;28;20049;-73
2022/04/21 09:05:44;;;;;;;24.30;7.00;;;;;;;;;;5072106;28;20051;-75
2022/04/21 09:09:09;;;;;;;19.52;6.65;;;;;;;;;;5072575;28;20075;-74
2022/04/21 09:12:19;;;;;;;19.27;7.28;;;;;;;;;;5071964;28;20071;-74
2022/04/21 09:15:25;;;;;;;27.15;7.40;;;;;;;;;;5072668;28;20111;-77
2022/04/21 09:18:36;;;;;;;28.48;6.47;;;;;;;;;;5072466;28;20051;-74
2022/04/21 09:21:40;;;;;;;31.80;6.93;;;;;;;;;;5071389;28;20513;-75
2022/04/21 09:24:44;;;;;;;37.47;7.60;;;;;;;;;;5071857;28;20047;-73
2022/04/21 09:27:49;;;;;;;28.02;7.72;;;;;;;;;;5072452;28;20376;-73
2022/04/21 09:30:55;;;;;;;31.15;8.07;;;;;;;;;;5071863;28;20063;-74
2022/04/21 09:34:01;;;;;;;31.63;7.30;;;;;;;;;;5071336;28;20039;-74
2022/04/21 09:37:05;;;;;;;24.90;7.00;;;;;;;;;;5072188;28;20055;-70
2022/04/21 09:40:13;;;;;;;26.48;7.63;;;;;;;;;;5072284;28;20051;-69
2022/04/21 09:43:27;;;;;;;30.80;7.93;;;;;;;;;;5071801;28;20048;-72
2022/04/21 09:46:34;;;;;;;31.50;7.65;;;;;;;;;;5072155;28;20043;-74
2022/04/21 09:49:41;;;;;;;33.05;7.30;;;;;;;;;;5071825;28;20504;-72
2022/04/21 09:52:49;;;;;;;22.05;7.53;;;;;;;;;;5072124;28;20040;-74
2022/04/21 09:56:08;;;;;;;29.20;7.25;;;;;;;;;;5071459;28;20043;-72
2022/04/21 09:59:13;;;;;;;25.23;6.85;;;;;;;;;;5070766;28;20043;-73
2022/04/21 10:02:17;;;;;;;28.90;6.75;;;;;;;;;;5071588;28;20035;-73
2022/04/21 10:05:21;;;;;;;28.20;6.75;;;;;;;;;;5071779;28;20051;-72
2022/04/21 10:08:25;;;;;;;14.50;6.13;;;;;;;;;;5070530;28;20047;-74
2022/04/21 10:11:31;;;;;;;21.77;7.68;;;;;;;;;;5071802;28;20052;-74
2022/04/21 10:14:35;;;;;;;24.33;8.73;;;;;;;;;;5071418;28;20047;-75
2022/04/21 10:17:39;;;;;;;31.75;10.90;;;;;;;;;;5070371;28;20059;-73
2022/04/21 10:20:47;;;;;;;30.25;10.88;;;;;;;;;;5071891;28;20043;-81
2022/04/21 10:23:51;;;;;;;27.23;9.48;;;;;;;;;;5070391;28;20047;-77
2022/04/21 10:26:56;;;;;;;28.17;8.27;;;;;;;;;;5070579;28;20055;-75
2022/04/21 10:30:01;;;;;;;28.15;8.80;;;;;;;;;;5071309;28;20504;-80
2022/04/21 10:33:05;;;;;;;24.20;8.95;;;;;;;;;;5071768;28;20047;-77
2022/04/21 10:36:29;;;;;;;27.92;9.75;;;;;;;;;;5069969;28;20056;-76
2022/04/21 10:39:34;;;;;;;22.48;8.45;;;;;;;;;;5070444;28;20040;-75
2022/04/21 10:42:58;;;;;;;23.45;8.68;;;;;;;;;;5070818;28;20499;-75
2022/04/21 10:46:06;;;;;;;31.52;10.20;;;;;;;;;;5070985;28;20499;-78
2022/04/21 10:49:10;;;;;;;34.45;9.98;;;;;;;;;;5071358;28;20051;-72
2022/04/21 10:59:02;;;;;;;29.83;9.18;;;;;;;;;;5071387;28;20049;-73
2022/04/21 11:02:12;;;;;;;21.85;7.10;;;;;;;;;;5070916;28;20523;-73
2022/04/21 11:05:22;;;;;;;24.58;8.00;;;;;;;;;;5070649;28;20052;-72
2022/04/21 11:08:31;;;;;;;25.63;7.90;;;;;;;;;;5072069;28;20055;-73
2022/04/21 11:11:47;;;;;;;25.45;6.82;;;;;;;;;;5070902;28;20039;-74
2022/04/21 11:14:52;;;;;;;32.88;7.15;;;;;;;;;;5070934;28;20048;-72
2022/04/21 11:18:01;;;;;;;33.63;10.48;;;;;;;;;;5070684;28;20056;-72
2022/04/21 11:21:26;;;;;;;30.92;8.32;;;;;;;;;;5070682;28;20500;-72
2022/04/21 11:24:49;;;;;;;30.88;8.15;;;;;;;;;;5070980;28;20043;-72
2022/04/21 11:27:54;;;;;;;21.45;7.22;;;;;;;;;;5070617;28;20044;-73
2022/04/21 11:30:59;;;;;;;27.25;5.78;;;;;;;;;;5070847;28;20048;-72
2022/04/21 11:34:04;;;;;;;25.85;5.20;;;;;;;;;;5070920;28;20495;-73
2022/04/21 11:37:08;;;;;;;21.00;4.53;;;;;;;;;;5070467;28;20056;-75
2022/04/21 11:40:22;;;;;;;27.63;5.78;;;;;;;;;;5070457;28;20043;-75
2022/04/21 11:43:27;;;;;;;26.27;4.90;;;;;;;;;;5070520;28;20385;-72
2022/04/21 11:46:32;;;;;;;23.70;4.80;;;;;;;;;;5069806;28;20047;-75
2022/04/21 11:49:36;;;;;;;21.77;4.85;;;;;;;;;;5074701;28;20051;-76
2022/04/21 11:52:42;;;;;;;25.27;5.13;;;;;;;;;;5074680;28;20051;-78
2022/04/21 11:55:47;;;;;;;16.50;4.70;;;;;;;;;;5073544;28;20039;-78
2022/04/21 11:58:52;;;;;;;28.88;5.60;;;;;;;;;;5074200;28;20059;-76
2022/04/21 12:08:46;;;;;;;28.08;5.32;;;;;;;;;;5073836;28;20064;-74
2022/04/21 12:11:52;;;;;;;25.70;5.10;;;;;;;;;;5073695;28;20504;-71
2022/04/21 12:14:56;;;;;;;26.80;7.05;;;;;;;;;;5073578;28;20071;-71
2022/04/21 12:18:01;;;;;;;22.35;4.55;;;;;;;;;;5073630;28;20515;-75
2022/04/21 12:21:05;;;;;;;17.40;4.47;;;;;;;;;;5073629;28;20499;-72
2022/04/21 12:24:20;;;;;;;15.70;4.75;;;;;;;;;;5073362;28;20127;-76
2022/04/21 12:27:26;;;;;;;16.38;4.63;;;;;;;;;;5073978;28;20059;-74
2022/04/21 12:30:31;;;;;;;16.05;6.50;;;;;;;;;;5074054;28;20065;-77
2022/04/21 12:33:42;;;;;;;12.73;6.43;;;;;;;;;;5073416;28;20036;-74
2022/04/21 12:36:46;;;;;;;;;;;;;;;;;;5073003;28;20515;-73
2022/04/21 12:39:50;;;;;;;14.23;5.10;;;;;;;;;;5073689;28;19916;-72
2022/04/21 12:42:55;;;;;;;14.82;5.47;;;;;;;;;;5072061;28;20396;-71
2022/04/21 12:45:59;;;;;;;10.45;4.80;;;;;;;;;;5073423;28;20052;-72
2022/04/21 12:49:03;;;;;;;15.00;5.90;;;;;;;;;;5073324;28;20044;-72
2022/04/21 12:52:07;;;;;;;19.63;6.75;;;;;;;;;;5073346;28;20047;-72
2022/04/21 12:55:33;;;;;;;15.52;5.18;;;;;;;;;;5072944;28;20531;-71
2022/04/21 12:58:38;;;;;;;15.77;5.97;;;;;;;;;;5071911;28;20060;-71
2022/04/21 13:01:42;;;;;;;19.30;5.60;;;;;;;;;;5073188;28;20418;-72
2022/04/21 13:04:47;;;;;;;14.80;5.65;;;;;;;;;;5073055;28;20051;-72
2022/04/21 13:07:51;;;;;;;16.67;5.35;;;;;;;;;;5071759;28;20055;-71
2022/04/21 13:10:56;;;;;;;19.45;6.50;;;;;;;;;;5073132;28;20063;-72
2022/04/21 13:14:01;;;;;;;18.17;5.55;;;;;;;;;;5072674;28;20059;-71
2022/04/21 13:17:06;;;;;;;11.75;4.38;;;;;;;;;;5072728;28;20052;-71
2022/04/21 13:20:10;;;;;;;20.00;5.55;;;;;;;;;;5072542;28;20040;-72
2022/04/21 13:23:14;;;;;;;11.70;4.63;;;;;;;;;;5071572;28;20396;-72
2022/04/21 13:26:20;;;;;;;11.55;4.50;;;;;;;;;;5072638;28;20043;-72
2022/04/21 13:29:27;;;;;;;19.95;5.00;;;;;;;;;;5072242;28;20039;-71
2022/04/21 13:35:54;;;;;;;31.13;6.28;;;;;;;;;;5071508;28;20503;-72
2022/04/21 13:38:59;;;;;;;18.75;5.40;;;;;;;;;;5072492;28;20051;-72
2022/04/21 13:42:04;;;;;;;28.13;5.32;;;;;;;;;;5072321;28;20039;-71
2022/04/21 13:45:08;;;;;;;19.02;5.25;;;;;;;;;;5071974;28;20047;-72
2022/04/21 13:48:12;;;;;;;14.05;4.80;;;;;;;;;;5071942;28;20531;-71
2022/04/21 13:51:17;;;;;;;16.05;4.72;;;;;;;;;;5071851;28;20043;-72
2022/04/21 13:54:21;;;;;;;23.02;4.95;;;;;;;;;;5071784;28;20067;-71
2022/04/21 13:57:25;;;;;;;24.35;5.53;;;;;;;;;;5071824;28;20412;-72
2022/04/21 14:00:29;;;;;;;14.05;4.45;;;;;;;;;;5071560;28;20055;-72
2022/04/21 14:03:36;;;;;;;11.90;4.07;;;;;;;;;;5072263;28;20384;-70
2022/04/21 14:06:40;;;;;;;31.75;6.00;;;;;;;;;;5070845;28;20404;-73
2022/04/21 14:09:45;;;;;;;30.65;7.43;;;;;;;;;;5071408;28;20226;-71
2022/04/21 14:12:49;;;;;;;38.75;7.75;;;;;;;;;;5071533;28;20369;-72
2022/04/21 14:15:53;;;;;;;29.13;6.03;;;;;;;;;;5071712;28;20501;-72
2022/04/21 14:18:58;;;;;;;20.83;5.82;;;;;;;;;;5070100;28;20059;-77
2022/04/21 14:22:02;;;;;;;12.10;5.10;;;;;;;;;;5071047;28;20063;-73
2022/04/21 14:25:07;;;;;;;14.82;5.43;;;;;;;;;;5071424;28;20043;-74
2022/04/21 14:28:11;;;;;;;15.10;6.43;;;;;;;;;;5071039;28;20047;-74
2022/04/21 14:31:16;;;;;;;25.25;7.07;;;;;;;;;;5071086;28;20111;-74
2022/04/21 14:34:21;;;;;;;22.25;6.78;;;;;;;;;;5071036;28;20044;-73
2022/04/21 14:44:13;;;;;;;20.08;6.65;;;;;;;;;;5071006;28;20052;-80
2022/04/21 14:47:17;;;;;;;21.85;6.15;;;;;;;;;;5071160;28;20055;-77
2022/04/21 14:50:22;;;;;;;15.15;6.00;;;;;;;;;;5071069;28;20043;-76
2022/04/21 14:53:26;;;;;;;11.82;5.35;;;;;;;;;;5071101;28;20065;-73
2022/04/21 14:56:33;;;;;;;19.98;6.57;;;;;;;;;;5069758;28;20056;-74
2022/04/21 14:59:38;;;;;;;29.73;9.27;;;;;;;;;;5071234;28;20051;-79
2022/04/21 15:02:42;;;;;;;17.83;6.55;;;;;;;;;;5071179;28;20048;-76
2022/04/21 15:05:46;;;;;;;14.85;5.22;;;;;;;;;;5071172;28;20043;-81
2022/04/21 15:08:50;;;;;;;14.63;5.50;;;;;;;;;;5071078;28;20051;-76
2022/04/21 15:11:55;;;;;;;17.02;5.32;;;;;;;;;;5069623;28;20412;-76
2022/04/21 15:14:59;;;;;;;14.98;6.28;;;;;;;;;;5070609;28;20047;-76
2022/04/21 15:18:04;;;;;;;25.80;6.93;;;;;;;;;;5069736;28;20059;-74
2022/04/21 15:21:09;;;;;;;25.98;5.18;;;;;;;;;;5069869;28;20521;-75
2022/04/21 15:24:13;;;;;;;15.95;4.80;;;;;;;;;;5074539;28;20047;-75
2022/04/21 15:27:17;;;;;;;17.17;5.47;;;;;;;;;;5074801;28;20043;-75
2022/04/21 15:30:22;;;;;;;17.23;5.82;;;;;;;;;;5073658;28;20043;-81
2022/04/21 15:33:26;;;;;;;17.42;6.00;;;;;;;;;;5074771;28;20047;-77
2022/04/21 15:36:30;;;;;;;28.42;6.30;;;;;;;;;;5074245;28;20052;-74
2022/04/21 15:39:35;;;;;;;70.57;34.47;;;;;;;;;;5074488;28;20079;-74
2022/04/21 15:42:40;;;;;;;36.33;9.60;;;;;;;;;;5074523;28;20059;-79
2022/04/21 15:45:45;;;;;;;17.92;5.93;;;;;;;;;;5074150;28;20408;-79
2022/04/21 15:48:49;;;;;;;26.88;5.72;;;;;;;;;;5072826;28;20048;-81
2022/04/21 15:51:54;;;;;;;19.42;5.15;;;;;;;;;;5073385;28;20043;-83
2022/04/21 16:01:45;;;;;;;22.20;6.20;;;;;;;;;;5074120;28;20051;-80
2022/04/21 16:04:50;;;;;;;11.80;4.80;;;;;;;;;;5073923;28;20059;-75
2022/04/21 16:07:55;;;;;;;10.15;5.13;;;;;;;;;;5074793;28;20056;-80
2022/04/21 16:10:59;;;;;;;16.27;4.95;;;;;;;;;;5074562;28;20048;-80
2022/04/21 16:14:03;;;;;;;13.00;5.43;;;;;;;;;;5074043;28;20048;-83
2022/04/21 16:17:08;;;;;;;14.52;5.07;;;;;;;;;;5072332;28;20056;-81
2022/04/21 16:20:12;;;;;;;13.52;5.40;;;;;;;;;;5071857;28;20047;-79
2022/04/21 16:23:38;;;;;;;13.98;4.72;;;;;;;;;;5073168;28;20059;-78
2022/04/21 16:26:43;;;;;;;24.15;6.45;;;;;;;;;;5074037;28;20040;-79
2022/04/21 16:29:47;;;;;;;22.10;5.97;;;;;;;;;;5073064;28;20039;-83
2022/04/21 16:32:52;;;;;;;22.85;9.48;;;;;;;;;;5072477;28;20047;-74
2022/04/21 16:35:56;;;;;;;17.38;7.97;;;;;;;;;;5072684;28;20388;-74
2022/04/21 16:39:01;;;;;;;22.33;7.00;;;;;;;;;;5073271;28;20051;-78
2022/04/21 16:42:07;;;;;;;20.55;7.68;;;;;;;;;;5073178;28;20515;-76
2022/04/21 16:45:11;;;;;;;19.50;6.55;;;;;;;;;;5073322;28;20051;-77
2022/04/21 16:48:16;;;;;;;22.58;6.15;;;;;;;;;;5072834;28;20043;-75
2022/04/21 16:51:20;;;;;;;25.38;6.18;;;;;;;;;;5072122;28;20047;-73
2022/04/21 16:54:24;;;;;;;17.00;5.07;;;;;;;;;;5073522;28;20052;-76
2022/04/21 16:57:33;;;;;;;14.82;4.10;;;;;;;;;;5071643;28;20051;-78
2022/04/21 17:04:00;;;;;;;16.55;3.65;;;;;;;;;;5073091;28;20055;-76
2022/04/21 17:07:05;;;;;;;18.45;3.83;;;;;;;;;;5071312;28;20055;-78
2022/04/21 17:10:10;;;;;;;15.88;4.13;;;;;;;;;;5072935;28;20051;-82
2022/04/21 17:13:15;;;;;;;22.92;3.72;;;;;;;;;;5072790;28;20056;-78
2022/04/21 17:16:19;;;;;;;22.15;3.88;;;;;;;;;;5072790;28;20048;-77
2022/04/21 17:19:24;;;;;;;16.63;3.55;;;;;;;;;;5071916;28;20044;-75
2022/04/21 17:22:28;;;;;;;25.73;4.40;;;;;;;;;;5072526;28;20047;-75
2022/04/21 17:25:34;;;;;;;18.00;4.88;;;;;;;;;;5071653;28;20397;-80
2022/04/21 17:28:38;;;;;;;20.52;4.65;;;;;;;;;;5070925;28;20059;-74
2022/04/21 17:31:43;;;;;;;16.17;4.07;;;;;;;;;;5072099;28;20198;-75
2022/04/21 17:34:47;;;;;;;23.77;3.75;;;;;;;;;;5071285;28;20043;-73
2022/04/21 17:37:51;;;;;;;18.63;4.53;;;;;;;;;;5071430;28;20150;-73
2022/04/21 17:40:56;;;;;;;16.88;3.33;;;;;;;;;;5072270;28;20044;-74
2022/04/21 17:44:00;;;;;;;18.73;3.53;;;;;;;;;;5072029;28;20408;-74
2022/04/21 17:47:10;;;;;;;16.75;4.00;;;;;;;;;;5071658;28;20501;-76
2022/04/21 17:50:15;;;;;;;19.40;2.92;;;;;;;;;;5070818;28;20400;-73
2022/04/21 17:53:19;;;;;;;21.15;3.15;;;;;;;;;;5071375;28;20365;-75
2022/04/21 17:56:23;;;;;;;26.67;3.60;;;;;;;;;;5071139;28;20079;-73
2022/04/21 17:59:28;;;;;;;31.55;4.20;;;;;;;;;;5071184;28;20047;-72
2022/04/21 18:02:32;;;;;;;27.83;4.30;;;;;;;;;;5071490;28;20245;-73
2022/04/21 18:05:38;;;;;;;26.80;3.97;;;;;;;;;;5070840;28;20035;-74
2022/04/21 18:08:42;;;;;;;35.15;5.03;;;;;;;;;;5071386;28;20063;-73
2022/04/21 18:11:47;;;;;;;28.50;3.42;;;;;;;;;;5071928;28;20047;-73
2022/04/21 18:14:51;;;;;;;21.48;4.78;;;;;;;;;;5071439;28;20044;-74
2022/04/21 18:17:56;;;;;;;22.40;4.15;;;;;;;;;;5071260;28;20515;-71
2022/04/21 18:21:00;;;;;;;29.15;4.68;;;;;;;;;;5071884;28;20069;-72
2022/04/21 18:24:05;;;;;;;27.83;4.20;;;;;;;;;;5073862;28;20051;-72
2022/04/21 18:27:08;;;;;;;27.42;4.43;;;;;;;;;;5071320;28;20315;-72
2022/04/21 18:30:13;;;;;;;31.05;5.43;;;;;;;;;;5071180;28;20400;-72
2022/04/21 18:33:17;;;;;;;30.38;4.20;;;;;;;;;;5070698;28;20040;-72
2022/04/21 18:36:22;;;;;;;30.15;5.38;;;;;;;;;;5071285;28;20056;-72
2022/04/21 18:39:26;;;;;;;22.67;4.90;;;;;;;;;;5071224;28;20393;-70
2022/04/21 18:42:31;;;;;;;29.20;4.53;;;;;;;;;;5070735;28;20502;-71
2022/04/21 18:45:35;;;;;;;34.03;4.13;;;;;;;;;;5071049;28;20296;-71
2022/04/21 18:48:39;;;;;;;21.33;3.83;;;;;;;;;;5071020;28;20052;-70
2022/04/21 18:51:44;;;;;;;22.58;3.67;;;;;;;;;;5070986;28;20043;-69
2022/04/21 18:54:48;;;;;;;23.55;3.95;;;;;;;;;;5071149;28;20055;-71
2022/04/21 19:01:15;;;;;;;35.53;5.30;;;;;;;;;;5071092;28;20044;-69
2022/04/21 19:04:20;;;;;;;26.42;3.85;;;;;;;;;;5069935;28;20044;-71
2022/04/21 19:07:24;;;;;;;40.50;4.68;;;;;;;;;;5069922;28;20059;-69
2022/04/21 19:10:30;;;;;;;41.97;4.78;;;;;;;;;;5070857;28;20036;-70
2022/04/21 19:13:35;;;;;;;30.65;4.35;;;;;;;;;;5071200;28;20051;-70
2022/04/21 19:16:39;;;;;;;28.73;4.38;;;;;;;;;;5070806;28;20111;-70
2022/04/21 19:19:43;;;;;;;30.63;4.68;;;;;;;;;;5070108;28;20051;-70
2022/04/21 19:22:48;;;;;;;26.02;4.93;;;;;;;;;;5070603;28;20047;-70